Rohrerstown, Pennsylvania
Current Conditions -  °F | °C
As of 5:53 AM on Wednesday 26 Nov 2014 (Local Time) from KLNS Reporting Station
Light Rain Light Rain  
Wind Chill: 36°   Ceiling: 3900
Heat Index: 42°   Visibility: 10mi
Dew Point: 32°   Wind: 10mph
Humidity: 67%   Direction: 30°NNE
Pressure: 30.08"   Gusts: NA
Location:  40.0115°N, 76.3553°W
Report Text: KLNS 261053Z 03009KT 10SM -RA OVC039 06/00 A3008 RMK AO2 SLP187 P0000 T00560000
Loading
Personal Weather Stations






























Interactive Weather Map New forecast layout! Learn more

10-Day Weather Forecast

Advertisements
Track Severe Weather on mobile